Portada
METAR-TAF:

METAR-TAF

Aeroports :

Boone Municipal Airport

Boone, Iowa, Estats Units d'Amèrica

latitud: 42-03N, longitud: 093-51W, altitud: 354 m

Observació

L'informe es va fer fa 22 minuts, a les 07:15 UTC
Vent calma
Temperatura 8°C
Humitat 93%
Pressió 1019 hPa
Visibilitat: 16.1 km
Cel clar

METAR: KBNW 260715Z AUTO 00000KT 10SM CLR 08/07 A3009 RMK AO2

Hora: 02:37 (07:37 UTC)


TAF: manca

Observacions i pronòstics meteorològics de més de 4000 aeroports (METAR i TAF).

Les estacions disponibles són els punts grocs i vermells al mapa.

Posi el ratolí al punt desitjat per veure el nom de l'estació.

Feu clic per veure les observacions i els pronòstics meteorològics.

Per canviar el mapa: feu clic els botons verds amb una creu de color negre per apropar; al botó verd amb un guió per allunyar la imatge; o en les fletxes verdes per a mapes adjacents.


METAR-TAF: